Time;durP1;ratioP1;P1;durP2;ratioP2;P2;SDS_P1;SDS_P2;PMS_P1;PMS_P2;Temp;Humidity;BMP_temperature;BMP_pressure;BME280_temperature;BME280_humidity;BME280_pressure;Samples;Min_cycle;Max_cycle;Signal;HPM_P1;HPM_P2
2021/03/30 00:03:59;;;;;;;11.48;6.30;;;;;;;15.13;66.32;101513.89;2810941;84;21141;-62
2021/03/30 00:08:02;;;;;;;11.43;5.33;;;;;;;15.11;66.26;101510.48;2858897;83;21111;-62
2021/03/30 00:12:06;;;;;;;8.65;5.45;;;;;;;15.10;65.24;101512.80;2810599;84;21157;-62
2021/03/30 00:16:09;;;;;;;9.75;5.30;;;;;;;15.11;64.98;101507.81;2859055;83;21181;-62
2021/03/30 00:20:15;;;;;;;10.78;5.92;;;;;;;15.14;64.52;101516.96;2811098;84;21141;-61
2021/03/30 00:24:18;;;;;;;16.15;5.75;;;;;;;15.17;64.95;101512.69;2858932;83;21149;-63
2021/03/30 00:28:21;;;;;;;7.15;5.17;;;;;;;15.13;64.81;101510.73;2810864;84;21154;-62
2021/03/30 00:32:25;;;;;;;11.10;7.75;;;;;;;15.10;65.02;101515.48;2859822;83;21594;-61
2021/03/30 00:36:28;;;;;;;10.20;6.67;;;;;;;15.04;66.12;101518.67;2813811;83;21183;-63
2021/03/30 00:40:31;;;;;;;15.20;7.03;;;;;;;15.07;65.68;101511.72;2861908;83;21109;-62
2021/03/30 00:44:33;;;;;;;15.50;7.35;;;;;;;15.09;64.33;101506.61;2813902;84;21160;-61
2021/03/30 00:48:37;;;;;;;13.35;7.05;;;;;;;15.09;64.21;101517.33;2862059;83;21117;-62
2021/03/30 00:52:42;;;;;;;7.55;6.15;;;;;;;15.02;64.41;101515.27;2813750;84;21147;-61
2021/03/30 00:56:46;;;;;;;8.85;6.22;;;;;;;14.92;64.51;101509.81;2862001;83;21093;-63
2021/03/30 01:00:48;;;;;;;10.48;4.95;;;;;;;14.90;63.69;101515.28;2813650;84;21168;-61
2021/03/30 01:04:51;;;;;;;12.37;6.35;;;;;;;14.82;64.23;101512.38;2861752;83;21164;-62
2021/03/30 01:09:32;;;;;;;8.55;5.37;;;;;;;14.62;64.61;101510.78;2813728;84;21165;-62
2021/03/30 01:14:13;;;;;;;8.63;5.60;;;;;;;14.46;65.41;101516.52;2816831;83;21575;-62
2021/03/30 01:18:39;;;;;;;13.65;6.80;;;;;;;14.17;65.67;101510.77;2813764;84;21157;-61
2021/03/30 01:23:27;;;;;;;9.40;5.93;;;;;;;13.96;66.33;101518.98;2861976;83;21118;-62
2021/03/30 01:28:06;;;;;;;12.70;6.70;;;;;;;13.73;67.40;101522.56;2813405;84;21212;-62
2021/03/30 01:32:26;;;;;;;13.65;6.90;;;;;;;13.55;67.46;101521.14;2861268;82;21125;-62
2021/03/30 01:36:37;;;;;;;14.93;6.05;;;;;;;13.53;67.32;101527.59;2817138;83;21118;-62
2021/03/30 01:40:40;;;;;;;;;;;;;;;13.53;67.12;101516.40;2815905;84;21551;-63
2021/03/30 01:44:43;;;;;;;9.25;4.95;;;;;;;13.55;67.03;101519.80;2861477;83;20124;-62
2021/03/30 01:48:46;;;;;;;11.25;5.95;;;;;;;13.55;67.59;101523.81;2813101;84;21645;-62
2021/03/30 01:52:51;;;;;;;10.40;5.35;;;;;;;13.53;66.96;101520.41;2861493;83;21208;-63
2021/03/30 01:56:55;;;;;;;11.50;7.65;;;;;;;13.58;66.47;101522.74;2813544;84;21181;-62
2021/03/30 02:01:00;;;;;;;11.88;6.12;;;;;;;13.54;66.08;101517.27;2861605;83;21121;-63
2021/03/30 02:05:07;;;;;;;10.25;5.87;;;;;;;13.52;65.62;101516.03;2813602;84;21129;-62
2021/03/30 02:09:17;;;;;;;12.28;7.20;;;;;;;13.49;65.74;101516.27;2861512;83;21176;-62
2021/03/30 02:13:24;;;;;;;13.00;6.80;;;;;;;13.50;65.81;101511.28;2788156;84;21176;-62
2021/03/30 02:17:54;;;;;;;14.47;8.03;;;;;;;13.47;65.62;101514.70;2861325;83;21129;-62
2021/03/30 02:22:03;;;;;;;12.70;6.33;;;;;;;13.39;65.80;101522.75;2813697;84;21231;-62
2021/03/30 02:26:08;;;;;;;9.18;6.28;;;;;;;13.35;66.18;101519.94;2861509;83;21181;-63
2021/03/30 02:30:14;;;;;;;22.55;15.98;;;;;;;13.21;66.50;101523.64;2813486;84;21208;-62
2021/03/30 02:34:18;;;;;;;;;;;;;;;13.09;66.94;101527.20;2853106;83;21145;-62
2021/03/30 02:38:21;;;;;;;8.80;7.17;;;;;;;12.94;67.27;101520.66;2846469;83;20164;-63
2021/03/30 02:42:26;;;;;;;12.68;8.55;;;;;;;12.80;67.59;101526.17;2739639;87;21555;-62
2021/03/30 02:46:32;;;;;;;10.35;6.67;;;;;;;12.64;68.30;101527.25;2785432;85;21165;-61
2021/03/30 02:50:36;;;;;;;9.43;6.42;;;;;;;12.47;69.02;101530.25;2785287;85;21646;-61
2021/03/30 02:54:40;;;;;;;15.05;9.25;;;;;;;12.37;69.64;101534.89;2785293;85;21196;-62
2021/03/30 02:58:44;;;;;;;8.83;7.37;;;;;;;12.35;70.07;101534.14;2785219;85;21133;-62
2021/03/30 03:02:48;;;;;;;20.25;8.33;;;;;;;12.30;70.18;101532.28;2785463;85;21131;-62
2021/03/30 03:06:51;;;;;;;9.63;6.33;;;;;;;12.20;70.46;101529.89;2785414;85;21165;-62
2021/03/30 03:10:55;;;;;;;14.25;10.18;;;;;;;12.16;70.95;101531.91;2785356;85;21137;-62
2021/03/30 03:15:01;;;;;;;19.20;14.23;;;;;;;12.16;70.52;101527.91;2785373;85;21570;-63
2021/03/30 03:19:07;;;;;;;22.65;15.25;;;;;;;12.14;70.19;101533.83;2785260;85;21622;-62
2021/03/30 03:23:09;;;;;;;;;;;;;;;12.11;70.01;101529.55;2788197;85;21200;-63
2021/03/30 03:27:12;;;;;;;17.05;10.03;;;;;;;12.16;69.56;101537.25;2785751;85;20136;-63
2021/03/30 03:31:15;;;;;;;16.48;10.35;;;;;;;12.21;69.10;101540.94;2785412;85;21192;-62
2021/03/30 03:35:19;;;;;;;11.55;8.93;;;;;;;12.27;68.84;101540.50;2824294;84;21164;-62
2021/03/30 03:39:22;;;;;;;22.13;10.20;;;;;;;12.21;68.65;101542.27;2813377;84;21145;-63
2021/03/30 03:43:24;;;;;;;23.70;15.78;;;;;;;12.23;68.51;101553.69;2861767;83;21113;-62
2021/03/30 03:47:28;;;;;;;14.83;9.75;;;;;;;12.22;68.33;101557.31;2861373;83;21125;-63
2021/03/30 03:51:36;;;;;;;15.75;9.70;;;;;;;12.12;68.43;101569.09;2813220;84;21166;-63
2021/03/30 03:55:49;;;;;;;12.40;8.35;;;;;;;12.00;68.54;101562.75;2861441;83;21146;-62
2021/03/30 03:59:51;;;;;;;14.53;9.60;;;;;;;11.96;68.70;101565.22;2813427;84;21224;-62
2021/03/30 04:04:05;;;;;;;11.65;9.18;;;;;;;11.97;68.50;101570.47;2861708;83;21520;-62
2021/03/30 04:08:14;;;;;;;15.00;9.65;;;;;;;12.02;68.26;101570.20;2813393;84;21422;-62
2021/03/30 04:12:20;;;;;;;14.03;9.15;;;;;;;12.08;67.96;101567.56;2861303;83;21240;-62
2021/03/30 04:16:23;;;;;;;17.90;11.88;;;;;;;12.09;68.08;101575.98;2813640;84;21125;-62
2021/03/30 04:20:26;;;;;;;15.20;9.75;;;;;;;12.04;67.89;101570.08;2861731;83;21109;-61
2021/03/30 04:24:29;;;;;;;19.77;10.63;;;;;;;12.02;68.21;101571.53;2813532;84;21129;-62
2021/03/30 04:28:32;;;;;;;17.92;9.48;;;;;;;11.98;68.43;101572.64;2861458;83;21133;-63
2021/03/30 04:32:36;;;;;;;17.65;9.85;;;;;;;11.91;68.40;101572.22;2813429;84;21165;-63
2021/03/30 04:36:39;;;;;;;18.55;8.93;;;;;;;11.76;68.69;101578.08;2861605;83;21184;-63
2021/03/30 04:40:42;;;;;;;13.60;10.05;;;;;;;11.68;69.01;101587.07;2813261;84;21105;-63
2021/03/30 04:44:45;;;;;;;17.42;11.03;;;;;;;11.65;69.21;101589.95;2861543;83;21113;-63
2021/03/30 04:48:49;;;;;;;17.40;11.68;;;;;;;11.68;69.21;101593.73;2861418;83;21165;-64
2021/03/30 04:52:52;;;;;;;16.00;8.23;;;;;;;11.68;69.04;101591.91;2861222;83;21097;-64
2021/03/30 04:56:56;;;;;;;21.45;9.68;;;;;;;11.66;69.27;101594.32;2813735;84;21109;-63
2021/03/30 05:00:59;;;;;;;15.88;8.58;;;;;;;11.66;69.33;101593.83;2861398;83;21880;-63
2021/03/30 05:05:02;;;;;;;12.85;7.95;;;;;;;11.62;68.84;101595.48;2813475;84;21118;-63
2021/03/30 05:09:06;;;;;;;13.15;8.03;;;;;;;11.54;69.25;101594.16;2861560;83;21168;-64
2021/03/30 05:13:09;;;;;;;13.62;8.48;;;;;;;11.53;69.65;101594.27;2813096;84;21164;-63
2021/03/30 05:17:12;;;;;;;13.38;9.05;;;;;;;11.57;70.42;101598.44;2861451;83;21136;-63
2021/03/30 05:21:17;;;;;;;15.65;8.80;;;;;;;11.62;71.50;101604.31;2813183;84;21559;-63
2021/03/30 05:25:20;;;;;;;12.70;7.85;;;;;;;11.81;72.63;101615.97;2861595;83;21190;-63
2021/03/30 05:29:22;;;;;;;14.80;8.00;;;;;;;11.99;72.94;101624.55;2813197;84;21214;-64
2021/03/30 05:33:25;;;;;;;13.43;9.58;;;;;;;12.32;73.41;101618.90;2860751;83;21145;-63
2021/03/30 05:37:28;;;;;;;10.82;8.13;;;;;;;12.83;73.06;101622.91;2796226;83;21527;-63
2021/03/30 05:41:31;;;;;;;9.63;7.47;;;;;;;13.16;71.20;101630.47;2826580;84;21160;-63
2021/03/30 05:45:34;;;;;;;13.20;7.40;;;;;;;13.29;70.73;101633.47;2812486;84;21145;-62
2021/03/30 05:49:39;;;;;;;13.60;8.38;;;;;;;13.38;70.08;101627.11;2860019;83;21169;-63
2021/03/30 05:53:50;;;;;;;10.00;7.83;;;;;;;13.40;70.09;101623.84;2859582;83;21578;-63
2021/03/30 05:57:57;;;;;;;14.70;7.72;;;;;;;13.35;69.68;101624.16;2808803;84;21165;-64
2021/03/30 06:02:02;;;;;;;12.20;7.80;;;;;;;13.59;70.26;101626.54;2839737;83;21177;-64
2021/03/30 06:06:05;;;;;;;15.40;7.92;;;;;;;13.97;68.68;101629.53;2859811;83;21110;-64
2021/03/30 06:10:13;;;;;;;17.82;8.03;;;;;;;14.06;66.31;101626.14;2812139;84;21149;-63
2021/03/30 06:14:21;;;;;;;11.75;7.45;;;;;;;14.08;66.73;101628.22;2840566;83;21158;-63
2021/03/30 06:18:23;;;;;;;16.60;9.20;;;;;;;14.10;66.55;101635.64;2854839;83;21114;-63
2021/03/30 06:22:27;;;;;;;12.90;8.73;;;;;;;14.05;66.70;101629.79;2812004;84;21173;-64
2021/03/30 06:26:30;;;;;;;19.75;10.03;;;;;;;14.04;66.99;101636.11;2840739;83;21161;-64
2021/03/30 06:30:34;;;;;;;18.75;10.48;;;;;;;14.08;67.19;101634.91;2831195;82;21182;-64
2021/03/30 06:34:40;;;;;;;22.32;8.88;;;;;;;14.08;67.64;101639.42;2817584;84;22270;-64
2021/03/30 06:38:54;;;;;;;14.90;9.93;;;;;;;14.16;68.12;101632.98;2804737;84;21600;-65
2021/03/30 06:43:11;;;;;;;15.25;8.85;;;;;;;14.46;69.20;101638.32;2804461;84;21181;-64
2021/03/30 06:47:11;;;;;;;16.00;9.40;;;;;;;15.04;69.99;101645.95;2803466;84;21145;-63
2021/03/30 06:51:19;;;;;;;15.72;8.80;;;;;;;15.75;68.61;101643.41;2770634;86;21140;-65
2021/03/30 06:55:29;;;;;;;13.38;10.20;;;;;;;16.44;66.52;101643.99;2770552;85;21879;-63
2021/03/30 06:59:37;;;;;;;12.85;7.85;;;;;;;16.93;63.61;101647.81;2792403;85;21146;-64
2021/03/30 07:03:43;;;;;;;12.35;9.73;;;;;;;17.18;61.65;101653.74;2770319;86;21223;-65
2021/03/30 07:07:49;;;;;;;12.30;8.58;;;;;;;17.35;62.01;101659.47;2748719;86;21148;-62
2021/03/30 07:11:54;;;;;;;16.20;10.18;;;;;;;17.54;59.42;101658.65;2770799;86;21598;-62
2021/03/30 07:16:06;;;;;;;14.85;9.58;;;;;;;17.69;58.65;101668.55;2792609;85;21166;-62
2021/03/30 07:20:12;;;;;;;17.55;10.20;;;;;;;17.73;58.51;101665.06;2771525;86;21175;-63
2021/03/30 07:24:20;;;;;;;16.48;10.03;;;;;;;17.87;58.76;101666.48;2792914;85;21186;-62
2021/03/30 07:28:31;;;;;;;12.10;8.83;;;;;;;18.06;56.64;101662.49;2818358;83;21146;-63
2021/03/30 07:32:45;;;;;;;13.43;8.68;;;;;;;18.25;56.79;101671.08;2773839;85;21133;-62
2021/03/30 07:36:56;;;;;;;18.60;8.65;;;;;;;18.36;55.30;101656.61;2813955;83;21151;-61
2021/03/30 07:41:00;;;;;;;15.32;9.08;;;;;;;18.49;56.28;101670.28;2862594;83;21133;-63
2021/03/30 07:45:05;;;;;;;9.18;7.83;;;;;;;18.59;55.69;101672.45;2814777;84;21140;-62
2021/03/30 07:49:11;;;;;;;14.83;9.97;;;;;;;18.58;52.79;101676.14;2862591;83;21155;-62
2021/03/30 07:53:53;;;;;;;18.02;9.20;;;;;;;18.48;53.83;101686.93;2862784;83;21167;-63
2021/03/30 07:58:00;;;;;;;10.03;8.60;;;;;;;18.43;54.00;101685.66;2862209;83;21121;-62
2021/03/30 08:02:04;;;;;;;14.45;9.95;;;;;;;18.40;53.44;101693.03;2862522;83;21157;-63
2021/03/30 08:06:18;;;;;;;14.15;8.93;;;;;;;18.45;53.84;101691.75;2862577;83;21168;-62
2021/03/30 08:10:36;;;;;;;14.78;9.13;;;;;;;18.44;52.06;101695.44;2858889;83;21157;-62
2021/03/30 08:14:41;;;;;;;21.80;10.35;;;;;;;18.43;53.53;101689.70;2859521;82;21540;-63
2021/03/30 08:18:48;;;;;;;16.43;10.10;;;;;;;18.50;51.77;101690.84;2832284;83;21205;-63
2021/03/30 08:23:11;;;;;;;15.35;10.55;;;;;;;18.61;52.80;101677.19;2814908;84;21434;-62
2021/03/30 08:27:35;;;;;;;16.05;10.18;;;;;;;18.75;52.38;101685.82;2813840;84;21159;-64
2021/03/30 08:31:44;;;;;;;15.48;10.28;;;;;;;18.92;53.24;101683.72;2813526;84;21164;-63
2021/03/30 08:35:47;;;;;;;14.13;9.53;;;;;;;19.06;53.37;101687.81;2813922;84;21186;-63
2021/03/30 08:39:51;;;;;;;17.60;8.88;;;;;;;19.16;52.44;101694.52;2813994;84;21146;-63
2021/03/30 08:44:21;;;;;;;16.85;9.80;;;;;;;19.24;52.00;101697.83;2813794;84;21138;-61
2021/03/30 08:48:49;;;;;;;18.25;11.38;;;;;;;19.31;53.34;101711.57;2839641;83;21444;-63
2021/03/30 08:52:57;;;;;;;21.15;11.10;;;;;;;19.35;51.12;101713.80;2862095;83;21176;-63
2021/03/30 08:57:03;;;;;;;;;;;;;;;19.41;52.57;101706.97;2864827;83;21193;-61
2021/03/30 09:01:07;;;;;;;15.58;10.88;;;;;;;19.45;53.29;101705.66;2862241;83;20164;-62
2021/03/30 09:05:20;;;;;;;15.15;10.43;;;;;;;19.46;52.78;101707.39;2861911;83;21184;-62
2021/03/30 09:09:33;;;;;;;13.68;11.05;;;;;;;19.51;54.08;101705.08;2862104;83;21571;-62
2021/03/30 09:13:33;;;;;;;16.57;9.55;;;;;;;19.63;53.62;101703.02;2861651;83;21153;-62
2021/03/30 09:17:57;;;;;;;18.80;11.48;;;;;;;19.60;51.46;101703.81;2846256;83;21188;-63
2021/03/30 09:22:15;;;;;;;;;;;;;;;19.67;53.49;101700.88;2816361;84;21162;-64
2021/03/30 09:26:26;;;;;;;15.13;10.00;;;;;;;19.66;52.30;101695.97;2813426;84;20151;-63
2021/03/30 09:30:27;;;;;;;25.00;13.85;;;;;;;19.81;52.82;101684.66;2813771;84;21130;-63
2021/03/30 09:34:29;;;;;;;;;;;;;;;19.88;53.80;101677.63;2817952;84;21162;-65
2021/03/30 09:38:57;;;;;;;17.73;10.90;;;;;;;19.87;51.75;101685.91;2819346;84;20154;-66
2021/03/30 09:43:06;;;;;;;16.12;11.48;;;;;;;19.92;52.60;101686.31;2819193;84;21130;-65
2021/03/30 09:47:16;;;;;;;17.52;12.23;;;;;;;19.94;51.71;101685.66;2819412;84;21200;-66
2021/03/30 09:51:25;;;;;;;15.20;12.13;;;;;;;20.01;52.61;101682.67;2747509;86;21141;-65
2021/03/30 09:55:39;;;;;;;16.90;12.53;;;;;;;20.12;54.13;101677.06;2769882;86;21133;-63
2021/03/30 09:59:47;;;;;;;18.87;12.65;;;;;;;20.18;50.77;101685.05;2819407;84;21117;-64
2021/03/30 10:03:53;;;;;;;15.35;11.05;;;;;;;20.30;53.88;101677.55;2770141;85;21149;-65
2021/03/30 10:07:57;;;;;;;12.10;10.93;;;;;;;20.52;55.35;101675.34;2819641;84;21125;-65
2021/03/30 10:12:23;;;;;;;16.20;10.15;;;;;;;20.61;53.85;101671.68;2770465;86;21182;-65
2021/03/30 10:16:28;;;;;;;18.50;11.50;;;;;;;20.64;53.09;101680.85;2772369;84;21129;-65
2021/03/30 10:20:50;;;;;;;18.45;11.48;;;;;;;20.75;51.35;101674.33;2817597;84;21125;-65
2021/03/30 10:25:16;;;;;;;18.80;11.20;;;;;;;20.81;52.03;101670.15;2810870;84;21165;-65
2021/03/30 10:29:24;;;;;;;22.58;10.80;;;;;;;20.84;50.16;101663.09;2867901;83;21143;-64
2021/03/30 10:33:40;;;;;;;14.80;9.93;;;;;;;20.87;50.81;101654.66;2817977;84;21121;-64
2021/03/30 10:37:52;;;;;;;13.28;9.08;;;;;;;20.97;51.64;101651.31;2817268;84;21554;-64
2021/03/30 10:42:17;;;;;;;16.12;9.53;;;;;;;21.05;51.12;101649.16;2817163;84;21632;-65
2021/03/30 10:46:47;;;;;;;19.00;10.23;;;;;;;21.03;51.94;101640.84;2709053;88;21175;-66
2021/03/30 10:50:53;;;;;;;16.12;10.35;;;;;;;21.06;52.41;101633.78;2803451;85;21225;-66
2021/03/30 10:55:02;;;;;;;15.50;11.22;;;;;;;21.19;51.37;101630.09;2803340;84;21598;-65
2021/03/30 10:59:15;;;;;;;18.05;10.05;;;;;;;21.28;51.93;101630.14;2803461;84;21129;-63
2021/03/30 11:03:18;;;;;;;21.85;11.33;;;;;;;21.28;50.52;101626.09;2803495;84;21163;-63
2021/03/30 11:07:21;;;;;;;16.73;10.58;;;;;;;21.33;50.96;101629.14;2803457;84;21169;-62
2021/03/30 11:11:25;;;;;;;16.73;10.43;;;;;;;21.41;52.54;101623.73;2803461;84;21137;-63
2021/03/30 11:15:29;;;;;;;17.02;9.90;;;;;;;21.45;50.62;101619.71;2803756;84;21141;-62
2021/03/30 11:19:32;;;;;;;13.45;9.68;;;;;;;21.50;52.44;101602.45;2746654;84;21157;-63
2021/03/30 11:23:37;;;;;;;13.65;9.35;;;;;;;21.66;51.08;101601.66;2734048;86;21244;-63
2021/03/30 11:27:43;;;;;;;16.50;11.53;;;;;;;21.77;51.09;101593.72;2734119;87;21552;-63
2021/03/30 11:40:09;;;;;;;17.80;11.22;;;;;;;22.10;48.47;101581.53;3001244;77;22884;-62
2021/03/30 11:44:12;;;;;;;15.80;12.17;;;;;;;22.11;49.54;101579.16;2955571;80;21129;-63
2021/03/30 11:48:15;;;;;;;27.27;12.37;;;;;;;22.22;47.80;101575.25;2954281;79;21094;-63
2021/03/30 11:52:18;;;;;;;15.23;10.45;;;;;;;22.29;49.67;101569.98;2846919;83;21169;-63
2021/03/30 11:56:23;;;;;;;15.43;10.82;;;;;;;22.35;48.11;101570.64;2847052;83;21221;-62
2021/03/30 12:00:27;;;;;;;19.33;11.50;;;;;;;22.48;47.92;101562.53;2866449;83;21137;-65
2021/03/30 12:04:32;;;;;;;13.72;9.73;;;;;;;22.60;49.05;101554.37;2952036;80;21145;-62
2021/03/30 12:08:36;;;;;;;14.95;9.83;;;;;;;22.69;47.22;101549.73;2846878;83;21102;-63
2021/03/30 12:12:42;;;;;;;13.32;8.60;;;;;;;22.74;47.33;101542.43;2847265;83;21161;-63
2021/03/30 12:16:51;;;;;;;13.38;8.98;;;;;;;22.81;46.77;101538.02;2866145;83;21469;-64
2021/03/30 12:20:56;;;;;;;10.48;8.23;;;;;;;22.83;47.40;101540.03;2956809;79;21121;-63
2021/03/30 12:25:06;;;;;;;11.50;8.45;;;;;;;22.89;47.45;101535.25;2904102;81;21185;-64
2021/03/30 12:29:10;;;;;;;12.68;8.88;;;;;;;22.95;47.82;101531.81;2921029;81;21206;-63
2021/03/30 12:33:13;;;;;;;17.40;9.63;;;;;;;23.00;46.87;101526.39;2888077;82;21124;-60
2021/03/30 12:37:17;;;;;;;10.75;7.17;;;;;;;23.12;47.18;101519.52;2887839;82;21152;-59
2021/03/30 12:41:21;;;;;;;14.87;7.45;;;;;;;23.21;46.30;101521.17;2887911;82;21145;-59
2021/03/30 12:45:25;;;;;;;13.90;7.08;;;;;;;23.31;46.82;101521.46;2888078;82;21590;-60
2021/03/30 12:49:28;;;;;;;15.10;7.90;;;;;;;23.34;46.93;101504.81;2887451;82;21097;-61
2021/03/30 12:53:32;;;;;;;10.68;7.65;;;;;;;23.42;45.69;101503.41;2887125;82;21141;-61
2021/03/30 12:57:37;;;;;;;10.65;7.60;;;;;;;23.53;45.47;101490.73;2856023;82;21125;-62
2021/03/30 13:01:39;;;;;;;9.40;6.35;;;;;;;23.54;46.13;101492.95;2834192;84;21098;-61
2021/03/30 13:05:43;;;;;;;22.20;8.50;;;;;;;23.59;45.06;101485.09;2905399;81;21109;-61
2021/03/30 13:09:47;;;;;;;9.33;6.92;;;;;;;23.66;45.09;101486.04;2905570;82;21533;-60
2021/03/30 13:13:51;;;;;;;11.83;7.20;;;;;;;23.79;45.34;101483.22;2905635;82;21560;-61
2021/03/30 13:17:53;;;;;;;9.73;7.85;;;;;;;23.89;44.73;101482.95;2900413;80;21115;-60
2021/03/30 13:21:59;;;;;;;12.53;6.78;;;;;;;23.90;45.30;101471.91;2905523;82;21078;-61
2021/03/30 13:26:06;;;;;;;7.70;6.05;;;;;;;23.92;44.26;101473.06;2900861;80;21119;-60
2021/03/30 13:30:17;;;;;;;9.65;6.70;;;;;;;23.93;43.49;101466.61;2823785;83;21110;-61
2021/03/30 13:34:21;;;;;;;16.25;8.53;;;;;;;23.97;44.49;101465.20;2824167;84;21130;-60
2021/03/30 13:38:28;;;;;;;11.55;7.47;;;;;;;24.00;44.70;101462.12;2824748;83;21140;-60
2021/03/30 13:42:32;;;;;;;10.10;7.47;;;;;;;24.03;44.18;101457.70;2824414;84;21101;-61
2021/03/30 13:46:36;;;;;;;6.28;4.40;;;;;;;24.03;43.76;101457.70;2824180;82;21116;-61
2021/03/30 13:50:40;;;;;;;16.90;5.97;;;;;;;24.07;43.86;101444.07;2905354;82;21102;-61
2021/03/30 13:54:44;;;;;;;6.67;5.10;;;;;;;24.16;44.65;101447.53;2855845;83;21105;-60
2021/03/30 13:58:47;;;;;;;6.67;5.25;;;;;;;24.21;45.24;101442.91;2855824;83;21109;-60
2021/03/30 14:02:52;;;;;;;8.38;5.60;;;;;;;24.22;44.78;101446.77;2885478;80;21132;-60
2021/03/30 14:06:55;;;;;;;18.20;7.17;;;;;;;24.24;43.81;101442.52;2842778;83;21159;-61
2021/03/30 14:11:00;;;;;;;10.05;4.95;;;;;;;24.24;43.56;101437.08;2820733;84;21117;-60
2021/03/30 14:15:12;;;;;;;5.97;3.87;;;;;;;24.14;43.14;101433.30;2820353;84;21124;-60
2021/03/30 14:19:19;;;;;;;19.15;5.45;;;;;;;24.12;43.31;101432.64;2820452;84;21086;-60
2021/03/30 14:23:28;;;;;;;8.48;4.03;;;;;;;24.15;44.11;101434.13;2899591;81;21099;-60
2021/03/30 14:27:31;;;;;;;7.90;3.95;;;;;;;24.13;43.82;101426.17;2899507;81;21104;-61
2021/03/30 14:31:36;;;;;;;6.77;3.47;;;;;;;24.10;43.72;101427.91;2891698;82;21118;-61
2021/03/30 14:35:39;;;;;;;4.47;3.00;;;;;;;24.05;43.66;101424.89;2895788;82;21239;-62
2021/03/30 14:39:46;;;;;;;5.78;3.92;;;;;;;24.08;43.60;101423.19;2873653;82;21115;-62
2021/03/30 14:52:49;;;;;;;7.27;4.27;;;;;;;24.14;43.84;101413.41;2897878;82;21111;-61
2021/03/30 14:56:52;;;;;;;8.38;3.95;;;;;;;24.10;45.04;101414.33;2866496;83;21571;-61
2021/03/30 15:05:10;;;;;;;10.58;6.20;;;;;;;24.12;44.77;101403.25;3007241;77;22821;-60
2021/03/30 15:09:13;;;;;;;;;;;;;;;24.09;45.08;101397.70;2964144;80;21520;-61
2021/03/30 15:13:18;;;;;;;10.28;5.72;;;;;;;24.08;44.91;101394.12;2961396;80;20154;-61
2021/03/30 15:17:22;;;;;;;6.87;4.33;;;;;;;24.10;45.62;101385.26;2961632;80;21539;-61
2021/03/30 15:21:25;;;;;;;3.85;2.98;;;;;;;24.04;45.49;101385.16;2961422;79;21105;-60
2021/03/30 15:25:29;;;;;;;8.65;4.60;;;;;;;23.95;45.20;101381.17;2961530;80;21101;-62
2021/03/30 15:29:33;;;;;;;9.43;4.87;;;;;;;23.89;45.30;101384.65;2940091;80;21121;-61
2021/03/30 15:33:38;;;;;;;14.80;5.37;;;;;;;23.90;46.08;101379.54;2910010;81;21152;-61
2021/03/30 15:37:42;;;;;;;7.60;5.22;;;;;;;23.89;48.13;101385.15;2909947;81;21109;-61
2021/03/30 15:41:46;;;;;;;12.82;6.50;;;;;;;23.85;46.86;101382.48;2910004;81;21163;-61
2021/03/30 15:50:08;;;;;;;12.73;6.75;;;;;;;23.85;48.81;101383.84;3061698;77;23282;-60
2021/03/30 15:54:11;;;;;;;7.97;5.58;;;;;;;23.68;49.07;101378.59;3012749;79;21551;-60
2021/03/30 15:58:14;;;;;;;11.63;6.87;;;;;;;23.51;48.69;101379.28;3012897;79;21109;-61
2021/03/30 16:02:18;;;;;;;14.38;6.58;;;;;;;23.37;49.48;101377.71;3012745;78;21105;-61
2021/03/30 16:06:21;;;;;;;9.60;6.70;;;;;;;23.28;48.62;101377.97;3012485;79;21110;-61
2021/03/30 16:10:27;;;;;;;13.20;9.33;;;;;;;23.07;49.07;101374.88;3012709;78;21097;-60
2021/03/30 16:14:32;;;;;;;11.55;9.30;;;;;;;22.87;50.05;101373.68;3012193;79;21113;-62
2021/03/30 16:18:35;;;;;;;14.77;9.97;;;;;;;22.67;50.51;101370.95;3011837;78;21153;-62
2021/03/30 16:22:41;;;;;;;17.67;11.83;;;;;;;22.52;50.84;101371.38;3011891;78;21090;-60
2021/03/30 16:26:44;;;;;;;11.85;9.45;;;;;;;22.41;51.07;101365.81;3011546;78;21552;-61
2021/03/30 16:30:49;;;;;;;12.60;9.78;;;;;;;22.22;51.37;101365.77;2972440;79;21167;-62
2021/03/30 16:34:53;;;;;;;16.52;11.40;;;;;;;21.97;51.34;101368.06;2958405;80;21098;-63
2021/03/30 16:38:56;;;;;;;14.80;9.88;;;;;;;21.63;52.07;101367.78;2958463;80;21105;-63
2021/03/30 16:43:00;;;;;;;17.25;11.20;;;;;;;21.37;52.66;101361.23;2958839;79;21141;-61
2021/03/30 16:47:05;;;;;;;28.75;13.55;;;;;;;21.10;52.73;101365.99;2958227;80;21105;-61
2021/03/30 16:51:16;;;;;;;15.13;11.28;;;;;;;20.85;53.60;101376.80;2959488;80;21093;-63
2021/03/30 16:55:20;;;;;;;16.05;11.30;;;;;;;20.52;54.03;101384.81;2959229;80;21555;-62
2021/03/30 16:59:23;;;;;;;16.97;11.28;;;;;;;20.19;54.55;101383.34;2958381;80;21131;-62
2021/03/30 17:03:26;;;;;;;11.65;10.32;;;;;;;19.91;55.06;101384.39;2958039;80;21109;-62
2021/03/30 17:07:29;;;;;;;24.50;11.10;;;;;;;19.64;54.86;101384.03;2957378;80;21559;-63
2021/03/30 17:11:32;;;;;;;17.52;12.23;;;;;;;19.46;54.97;101383.61;2957070;80;21101;-62
2021/03/30 17:15:35;;;;;;;20.37;12.90;;;;;;;19.31;55.95;101378.43;2957342;80;21520;-62
2021/03/30 17:19:39;;;;;;;19.57;13.30;;;;;;;19.11;56.65;101385.35;2957440;80;21500;-63
2021/03/30 17:23:42;;;;;;;15.85;12.20;;;;;;;18.88;57.27;101388.48;2955320;80;22255;-63
2021/03/30 17:27:47;;;;;;;22.55;16.35;;;;;;;18.68;57.65;101384.59;2949405;80;21168;-61
2021/03/30 17:31:49;;;;;;;26.80;15.80;;;;;;;18.37;58.51;101403.77;2952480;80;21137;-63
2021/03/30 17:35:52;;;;;;;27.25;18.40;;;;;;;18.17;58.80;101400.81;2955187;80;21570;-62
2021/03/30 17:39:56;;;;;;;33.48;20.85;;;;;;;18.11;58.16;101402.25;2954974;80;21523;-64
2021/03/30 17:43:59;;;;;;;34.35;22.45;;;;;;;18.12;57.16;101406.64;2954048;80;21146;-62
2021/03/30 17:48:03;;;;;;;40.17;25.52;;;;;;;18.17;55.34;101404.86;2955510;80;21161;-61
2021/03/30 17:52:07;;;;;;;36.93;24.37;;;;;;;18.20;54.21;101409.94;2954112;80;21129;-62
2021/03/30 17:56:10;;;;;;;42.80;30.45;;;;;;;18.16;54.84;101408.55;2955744;80;21148;-63
2021/03/30 18:00:19;;;;;;;50.23;36.70;;;;;;;18.14;53.88;101415.41;2955553;80;21117;-61
2021/03/30 18:04:22;;;;;;;44.67;30.32;;;;;;;18.18;52.99;101414.14;2955224;80;21118;-61
2021/03/30 18:08:27;;;;;;;44.35;29.20;;;;;;;18.27;52.44;101421.80;2955413;80;21101;-65
2021/03/30 18:12:32;;;;;;;46.50;33.25;;;;;;;18.27;52.82;101421.80;2955270;80;21137;-61
2021/03/30 18:16:38;;;;;;;33.42;23.10;;;;;;;18.18;53.22;101428.09;2955123;80;21177;-61
2021/03/30 18:20:41;;;;;;;34.98;22.42;;;;;;;18.08;52.48;101426.78;2954971;80;21224;-65
2021/03/30 18:24:45;;;;;;;26.02;19.15;;;;;;;18.07;52.55;101425.09;2954846;80;21117;-62
2021/03/30 18:28:48;;;;;;;29.48;21.65;;;;;;;18.03;52.24;101432.59;2955013;79;21173;-64
2021/03/30 18:32:51;;;;;;;31.45;19.87;;;;;;;17.99;52.52;101429.34;2955374;80;21156;-62
2021/03/30 18:36:54;;;;;;;29.23;19.67;;;;;;;17.94;52.92;101435.64;2954989;80;21153;-62
2021/03/30 18:40:58;;;;;;;30.85;20.68;;;;;;;17.82;53.27;101431.45;2954909;80;21536;-63
2021/03/30 18:45:01;;;;;;;41.53;22.58;;;;;;;17.67;53.63;101435.06;2954667;80;21666;-61
2021/03/30 18:49:06;;;;;;;49.40;22.85;;;;;;;17.60;53.76;101428.58;2936632;80;21160;-60
2021/03/30 18:53:09;;;;;;;166.37;45.92;;;;;;;17.51;54.03;101428.46;2929002;81;21101;-61
2021/03/30 18:57:15;;;;;;;68.90;29.25;;;;;;;17.38;54.28;101425.21;2929130;80;21117;-59
2021/03/30 19:01:18;;;;;;;32.33;22.62;;;;;;;17.24;54.67;101420.61;2928829;81;21154;-60
2021/03/30 19:05:22;;;;;;;36.08;26.10;;;;;;;17.16;55.03;101419.13;2928462;81;21132;-61
2021/03/30 19:09:32;;;;;;;32.83;24.50;;;;;;;17.06;55.45;101418.27;2770430;84;21209;-61
2021/03/30 19:13:37;;;;;;;33.85;23.98;;;;;;;16.94;55.50;101421.56;2797577;85;21167;-60
2021/03/30 19:17:41;;;;;;;31.07;21.33;;;;;;;16.81;55.86;101421.34;2768938;85;21552;-61
2021/03/30 19:21:44;;;;;;;31.97;20.23;;;;;;;16.72;56.70;101425.36;2768409;86;21149;-60